地図

経路データ

SID SEASON NUMBER BASIN SUBBASIN NAME ISO_TIME NATURE LAT LON WMO_WIND WMO_PRES WMO_AGENCY TRACK_TYPE DIST2LAND LANDFALL IFLAG USA_AGENCY USA_ATCF_ID USA_LAT USA_LON USA_RECORD USA_STATUS USA_WIND USA_PRES USA_SSHS USA_R34_NE USA_R34_SE USA_R34_SW USA_R34_NW USA_R50_NE USA_R50_SE USA_R50_SW USA_R50_NW USA_R64_NE USA_R64_SE USA_R64_SW USA_R64_NW USA_POCI USA_ROCI USA_RMW USA_EYE TOKYO_LAT TOKYO_LON TOKYO_GRADE TOKYO_WIND TOKYO_PRES TOKYO_R50_DIR TOKYO_R50_LONG TOKYO_R50_SHORT TOKYO_R30_DIR TOKYO_R30_LONG TOKYO_R30_SHORT TOKYO_LAND CMA_LAT CMA_LON CMA_CAT CMA_WIND CMA_PRES HKO_LAT HKO_LON HKO_CAT HKO_WIND HKO_PRES NEWDELHI_LAT NEWDELHI_LON NEWDELHI_GRADE NEWDELHI_WIND NEWDELHI_PRES NEWDELHI_CI NEWDELHI_DP NEWDELHI_POCI REUNION_LAT REUNION_LON REUNION_TYPE REUNION_WIND REUNION_PRES REUNION_TNUM REUNION_CI REUNION_RMW REUNION_R34_NE REUNION_R34_SE REUNION_R34_SW REUNION_R34_NW REUNION_R50_NE REUNION_R50_SE REUNION_R50_SW REUNION_R50_NW REUNION_R64_NE REUNION_R64_SE REUNION_R64_SW REUNION_R64_NW BOM_LAT BOM_LON BOM_TYPE BOM_WIND BOM_PRES BOM_TNUM BOM_CI BOM_RMW BOM_R34_NE BOM_R34_SE BOM_R34_SW BOM_R34_NW BOM_R50_NE BOM_R50_SE BOM_R50_SW BOM_R50_NW BOM_R64_NE BOM_R64_SE BOM_R64_SW BOM_R64_NW BOM_ROCI BOM_POCI BOM_EYE BOM_POS_METHOD BOM_PRES_METHOD NADI_LAT NADI_LON NADI_CAT NADI_WIND NADI_PRES WELLINGTON_LAT WELLINGTON_LON WELLINGTON_WIND WELLINGTON_PRES DS824_LAT DS824_LON DS824_STAGE DS824_WIND DS824_PRES TD9636_LAT TD9636_LON TD9636_STAGE TD9636_WIND TD9636_PRES TD9635_LAT TD9635_LON TD9635_WIND TD9635_PRES TD9635_ROCI NEUMANN_LAT NEUMANN_LON NEUMANN_CLASS NEUMANN_WIND NEUMANN_PRES MLC_LAT MLC_LON MLC_CLASS MLC_WIND MLC_PRES USA_GUST BOM_GUST BOM_GUST_PER REUNION_GUST REUNION_GUST_PER USA_SEAHGT USA_SEARAD_NE USA_SEARAD_SE USA_SEARAD_SW USA_SEARAD_NW STORM_SPEED STORM_DIR
1989159N17072 1989 43 NI AS NOT_NAMED 1989-06-07 18:00:00 NR 17.1000 71.7000 main 158 158 O_____________ jtwc_io IO021989 17.1000 71.7000 15 -1 11 292
1989159N17072 1989 43 NI AS NOT_NAMED 1989-06-07 21:00:00 NR 17.3128 71.1453 main 214 214 P_____________ IO021989 17.3128 71.1453 15 -1 11 291
1989159N17072 1989 43 NI AS NOT_NAMED 1989-06-08 00:00:00 NR 17.5000 70.6000 main 255 255 O_____________ jtwc_io IO021989 17.5000 70.6000 15 -1 11 288
1989159N17072 1989 43 NI AS NOT_NAMED 1989-06-08 03:00:00 NR 17.6499 70.0773 main 303 303 P_____________ IO021989 17.6499 70.0773 15 -1 10 287
1989159N17072 1989 43 NI AS NOT_NAMED 1989-06-08 06:00:00 NR 17.8000 69.6000 main 347 345 O_____________ jtwc_io IO021989 17.8000 69.6000 15 -1 9 291
1989159N17072 1989 43 NI AS NOT_NAMED 1989-06-08 09:00:00 NR 17.9850 69.1475 main 350 343 P_____________ IO021989 17.9850 69.1475 15 -1 9 298
1989159N17072 1989 43 NI AS NOT_NAMED 1989-06-08 12:00:00 NR 18.2000 68.8000 main 349 343 O_____________ jtwc_io IO021989 18.2000 68.8000 15 -1 7 309
1989159N17072 1989 43 NI AS NOT_NAMED 1989-06-08 15:00:00 NR 18.4274 68.5676 main 343 301 P_____________ IO021989 18.4274 68.5676 17 -1 7 357
1989159N17072 1989 43 NI AS NOT_NAMED 1989-06-08 18:00:00 NR 18.8600 68.7600 main 285 237 O_________O___ jtwc_io IO021989 18.7000 68.5000 20 -1 19.5000 69.8000 1 25 9 26
1989159N17072 1989 43 NI AS NOT_NAMED 1989-06-08 21:00:00 NR 19.2744 69.0014 main 237 182 P_________P___ IO021989 19.0124 68.5826 20 -1 19.7983 69.8390 1 25 10 30
1989159N17072 1989 43 NI AS NOT_NAMED 1989-06-09 00:00:00 NR 19.7000 69.2714 main 182 133 O_________O___ jtwc_io IO021989 19.4000 68.8000 20 -1 20.1000 69.9000 1 25 10 30
1989159N17072 1989 43 NI AS NOT_NAMED 1989-06-09 03:00:00 NR 20.1572 69.5335 main 124 84 P_________P___ IO021989 19.9075 69.0698 22 -1 20.4069 69.9972 1 25 10 28
1989159N17072 1989 43 NI AS NOT_NAMED 1989-06-09 06:00:00 NR 20.5569 69.7566 main 69 39 O_________P___ jtwc_io IO021989 20.4000 69.4000 25 -1 20.7137 70.1132 1 25 8 32
1989159N17072 1989 43 NI AS NOT_NAMED 1989-06-09 09:00:00 NR 20.8607 69.9977 main 30 0 P_________P___ IO021989 20.7076 69.7727 25 -1 21.0137 70.2227 1 25 7 35
1989159N17072 1989 43 NI AS NOT_NAMED 1989-06-09 12:00:00 NR 21.1500 70.2000 main 0 0 O_________O___ jtwc_io IO021989 21.0000 70.1000 25 -1 21.3000 70.3000 1 25 7 24
1989159N17072 1989 43 NI AS NOT_NAMED 1989-06-09 15:00:00 NR 21.5254 70.3184 main 0 0 P_________P___ IO021989 21.4499 70.3174 22 -1 21.6009 70.3194 1 25 8 11
1989159N17072 1989 43 NI AS NOT_NAMED 1989-06-09 18:00:00 NR 21.8912 70.3515 main 0 0 O_________P___ jtwc_io IO021989 21.9000 70.4000 20 -1 21.8824 70.3029 1 25 7 0
1989159N17072 1989 43 NI AS NOT_NAMED 1989-06-09 21:00:00 NR 22.1839 70.2989 main 0 0 P_________P___ IO021989 22.2450 70.3378 20 -1 22.1228 70.2600 1 25 5 345
1989159N17072 1989 43 NI AS NOT_NAMED 1989-06-10 00:00:00 NR 22.4000 70.2000 main 0 0 O_________O___ jtwc_io IO021989 22.5000 70.2000 20 -1 22.3000 70.2000 1 25 4 336
1989159N17072 1989 43 NI AS NOT_NAMED 1989-06-10 03:00:00 NR 22.5539 70.1180 main 15 15 P_________P___ IO021989 22.7100 70.0925 20 -1 22.3978 70.1434 1 25 3 325
1989159N17072 1989 43 NI AS NOT_NAMED 1989-06-10 06:00:00 NR 22.6162 70.0362 main 22 22 O_________P___ jtwc_io IO021989 22.8000 70.0000 20 -1 22.4325 70.0724 1 25 1 281
1989159N17072 1989 43 NI AS NOT_NAMED 1989-06-10 09:00:00 NR 22.5817 69.9664 main 22 11 P_________P___ IO021989 22.7375 69.9425 20 -1 22.4259 69.9903 1 25 2 228
1989159N17072 1989 43 NI AS NOT_NAMED 1989-06-10 12:00:00 NR 22.5000 69.9000 main 11 11 O_________O___ jtwc_io IO021989 22.6000 69.9000 20 -1 22.4000 69.9000 1 25 2 221
1989159N17072 1989 43 NI AS NOT_NAMED 1989-06-10 15:00:00 NR 22.4510 69.8484 main 11 0 P_________P___ IO021989 22.4925 69.8650 20 -1 22.4095 69.8317 1 25 2 228
1989159N17072 1989 43 NI AS NOT_NAMED 1989-06-10 18:00:00 NR 22.4011 69.7764 main 0 0 O_________P___ jtwc_io IO021989 22.4000 69.8000 20 -1 22.4022 69.7528 1 25 2 243
1989159N17072 1989 43 NI AS NOT_NAMED 1989-06-10 21:00:00 NR 22.3632 69.6600 main 0 0 P_________P___ IO021989 22.3575 69.6726 20 -1 22.3688 69.6475 1 25 3 249
1989159N17072 1989 43 NI AS NOT_NAMED 1989-06-11 00:00:00 NR 22.3000 69.5000 main 0 0 O_________O___ jtwc_io IO021989 22.3000 69.5000 20 -1 22.3000 69.5000 1 25 4 238
1989159N17072 1989 43 NI AS NOT_NAMED 1989-06-11 03:00:00 NR 22.1672 69.3239 main 0 0 P_________P___ IO021989 22.1649 69.3225 20 -1 22.1694 69.3253 1 27 5 231
1989159N17072 1989 43 NI AS NOT_NAMED 1989-06-11 06:00:00 NR 22.0035 69.1023 main 15 15 O_________P___ jtwc_io IO021989 22.0000 69.1000 20 -1 22.0070 69.1045 1 30 6 234
1989159N17072 1989 43 NI AS NOT_NAMED 1989-06-11 09:00:00 NR 21.8380 68.8307 main 53 53 P_________P___ IO021989 21.8349 68.8299 22 -1 21.8411 68.8315 1 32 6 242
1989159N17072 1989 43 NI AS NOT_NAMED 1989-06-11 12:00:00 NR 21.7000 68.5000 main 78 78 O_________O___ jtwc_io IO021989 21.7000 68.5000 25 -1 21.7000 68.5000 2 35 7 252
1989159N17072 1989 43 NI AS NOT_NAMED 1989-06-11 15:00:00 NR 21.6282 68.1189 main 113 113 P_________P___ IO021989 21.6349 68.1301 25 -1 21.6215 68.1077 2 35 8 261
1989159N17072 1989 43 NI AS NOT_NAMED 1989-06-11 18:00:00 NR 21.5852 67.6802 main 146 146 O_________P___ jtwc_io IO021989 21.6000 67.7000 25 -1 21.5703 67.6603 2 35 9 264
1989159N17072 1989 43 NI AS NOT_NAMED 1989-06-11 21:00:00 NR 21.5419 67.1989 main 196 196 P_________P___ IO021989 21.5500 67.2150 27 -1 21.5339 67.1827 2 35 9 265
1989159N17072 1989 43 NI AS NOT_NAMED 1989-06-12 00:00:00 NR 21.5000 66.7000 main 243 243 O_________O___ jtwc_io IO021989 21.5000 66.7000 30 -1 21.5000 66.7000 2 35 9 264
1989159N17072 1989 43 NI AS NOT_NAMED 1989-06-12 03:00:00 NR 21.4440 66.2032 main 296 296 P_________P___ IO021989 21.4500 66.1850 32 -1 21.4379 66.2214 2 35 9 263
1989159N17072 1989 43 NI AS NOT_NAMED 1989-06-12 06:00:00 NR 21.3889 65.7236 main 331 331 O_________P___ jtwc_io IO021989 21.4000 65.7000 XX 35 -5 21.3777 65.7473 2 35 9 263
1989159N17072 1989 43 NI AS NOT_NAMED 1989-06-12 09:00:00 NR 21.3392 65.2885 main 365 365 P_________P___ IO021989 21.3498 65.2775 XX 35 -5 21.3286 65.2995 2 35 8 263
1989159N17072 1989 43 NI AS NOT_NAMED 1989-06-12 12:00:00 NR 21.3000 64.9000 main 393 393 O_________O___ jtwc_io IO021989 21.3000 64.9000 XX 35 -5 21.3000 64.9000 2 35 7 264
1989159N17072 1989 43 NI AS NOT_NAMED 1989-06-12 15:00:00 NR 21.2630 64.5404 main 423 423 P_________P___ IO021989 21.2275 64.5199 XX 35 -5 21.2985 64.5609 2 33 6 266
1989159N17072 1989 43 NI AS NOT_NAMED 1989-06-12 18:00:00 NR 21.2594 64.2359 main 436 436 O_________P___ jtwc_io IO021989 21.2000 64.2000 XX 35 -5 21.3188 64.2719 2 32 5 276
1989159N17072 1989 43 NI AS NOT_NAMED 1989-06-12 21:00:00 NR 21.3198 63.9997 main 437 422 P_________P___ IO021989 21.2849 63.9776 XX 32 -5 21.3547 64.0219 2 31 4 289
1989159N17072 1989 43 NI AS NOT_NAMED 1989-06-13 00:00:00 NR 21.4000 63.8000 main 422 399 O_________O___ jtwc_io IO021989 21.4000 63.8000 XX 30 -5 21.4000 63.8000 1 30 4 291
1989159N17072 1989 43 NI AS NOT_NAMED 1989-06-13 03:00:00 NR 21.4584 63.6016 main 399 379 P_________P___ IO021989 21.4676 63.6075 XX 27 -5 21.4493 63.5957 1 27 4 285
1989159N17072 1989 43 NI AS NOT_NAMED 1989-06-13 06:00:00 NR 21.5000 63.4000 main 379 O_________O___ jtwc_io IO021989 21.5000 63.4000 XX 25 -5 21.5000 63.4000 1 25 4 283

IBTrACS Databaseについて

本データベースは、米国NOAAが公開する1842年以降の世界の熱帯低気圧のベストトラックデータアーカイブInternational Best Track Archive for Climate Stewardship (IBTrACS)を、ウェブで閲覧しやすい形式に変換したものです。

最終更新日:2021-12-06